Time;durP1;ratioP1;P1;durP2;ratioP2;P2;SDS_P1;SDS_P2;PMS_P1;PMS_P2;Temp;Humidity;BMP_temperature;BMP_pressure;BME280_temperature;BME280_humidity;BME280_pressure;Samples;Min_cycle;Max_cycle;Signal;HPM_P1;HPM_P2
2022/11/09 00:01:03;;;;;;;4.95;1.77;;;;;;;;;;5010579;28;20760;-64
2022/11/09 00:03:28;;;;;;;6.03;1.90;;;;;;;;;;5012569;28;20224;-64
2022/11/09 00:05:55;;;;;;;5.35;1.67;;;;;;;;;;5017716;28;20220;-64
2022/11/09 00:08:20;;;;;;;4.88;1.63;;;;;;;;;;5017215;28;20769;-64
2022/11/09 00:10:45;;;;;;;6.85;1.77;;;;;;;;;;5015881;28;20238;-64
2022/11/09 00:13:11;;;;;;;4.30;1.52;;;;;;;;;;5016488;28;20319;-64
2022/11/09 00:15:36;;;;;;;8.38;1.70;;;;;;;;;;5016339;28;20228;-64
2022/11/09 00:18:01;;;;;;;7.88;1.75;;;;;;;;;;5016017;28;20716;-64
2022/11/09 00:20:27;;;;;;;7.32;2.10;;;;;;;;;;5011471;28;20269;-64
2022/11/09 00:22:53;;;;;;;5.43;1.63;;;;;;;;;;5010397;28;20216;-64
2022/11/09 00:25:18;;;;;;;6.10;1.75;;;;;;;;;;5009831;28;20219;-64
2022/11/09 00:27:43;;;;;;;7.95;1.70;;;;;;;;;;5016604;28;20690;-64
2022/11/09 00:30:09;;;;;;;10.00;1.80;;;;;;;;;;5016378;28;20227;-64
2022/11/09 00:32:34;;;;;;;7.22;1.60;;;;;;;;;;5016835;28;21034;-64
2022/11/09 00:35:00;;;;;;;7.00;2.20;;;;;;;;;;5017081;28;20216;-64
2022/11/09 00:37:25;;;;;;;8.57;1.88;;;;;;;;;;5015851;28;20219;-64
2022/11/09 00:39:50;;;;;;;7.95;1.50;;;;;;;;;;5015745;28;20211;-64
2022/11/09 00:42:16;;;;;;;4.60;1.50;;;;;;;;;;5012534;28;20303;-64
2022/11/09 00:44:41;;;;;;;5.95;1.83;;;;;;;;;;5009197;28;20457;-64
2022/11/09 00:47:07;;;;;;;6.63;1.90;;;;;;;;;;5009767;28;20215;-64
2022/11/09 00:49:32;;;;;;;7.30;1.70;;;;;;;;;;5014492;28;20231;-64
2022/11/09 00:51:57;;;;;;;7.25;1.80;;;;;;;;;;5016890;28;20314;-64
2022/11/09 00:54:22;;;;;;;6.65;1.77;;;;;;;;;;5015827;28;20219;-64
2022/11/09 00:56:48;;;;;;;6.50;1.90;;;;;;;;;;5016165;28;20754;-64
2022/11/09 00:59:13;;;;;;;11.95;2.00;;;;;;;;;;5014558;28;20297;-64
2022/11/09 01:01:39;;;;;;;8.55;1.70;;;;;;;;;;5016547;28;20215;-64
2022/11/09 01:04:04;;;;;;;4.00;1.50;;;;;;;;;;5013497;28;20266;-64
2022/11/09 01:06:29;;;;;;;11.27;1.50;;;;;;;;;;5009578;28;20258;-64
2022/11/09 01:08:54;;;;;;;6.35;1.63;;;;;;;;;;5009705;28;20287;-64
2022/11/09 01:11:20;;;;;;;5.40;1.60;;;;;;;;;;5011342;28;20722;-64
2022/11/09 01:13:45;;;;;;;5.68;2.10;;;;;;;;;;5015533;28;20215;-64
2022/11/09 01:16:11;;;;;;;7.80;2.42;;;;;;;;;;5016226;28;20657;-64
2022/11/09 01:18:37;;;;;;;7.28;1.95;;;;;;;;;;5017453;28;20227;-64
2022/11/09 01:21:03;;;;;;;5.60;1.70;;;;;;;;;;5015927;28;20295;-64
2022/11/09 01:23:28;;;;;;;6.05;1.73;;;;;;;;;;5017650;28;20215;-64
2022/11/09 01:25:58;;;;;;;6.93;1.67;;;;;;;;;;5015741;28;20226;-64
2022/11/09 01:28:24;;;;;;;6.97;1.65;;;;;;;;;;5009154;28;20935;-64
2022/11/09 01:30:49;;;;;;;6.47;1.63;;;;;;;;;;5007868;28;20537;-64
2022/11/09 01:33:14;;;;;;;5.85;1.70;;;;;;;;;;5008237;28;20212;-64
2022/11/09 01:35:39;;;;;;;8.85;2.00;;;;;;;;;;5015882;28;20791;-64
2022/11/09 01:38:05;;;;;;;6.13;1.80;;;;;;;;;;5015515;28;20651;-64
2022/11/09 01:40:31;;;;;;;6.85;1.80;;;;;;;;;;5015462;28;20326;-64
2022/11/09 01:42:56;;;;;;;4.90;1.70;;;;;;;;;;5014878;28;20884;-64
2022/11/09 01:45:23;;;;;;;6.75;1.63;;;;;;;;;;5011265;28;20236;-64
2022/11/09 01:47:50;;;;;;;5.80;1.45;;;;;;;;;;5016091;28;20554;-64
2022/11/09 01:50:16;;;;;;;6.75;1.58;;;;;;;;;;4992933;28;20380;-64
2022/11/09 01:52:42;;;;;;;5.90;1.55;;;;;;;;;;4991725;28;20231;-64
2022/11/09 01:55:09;;;;;;;6.15;1.85;;;;;;;;;;5008608;28;20220;-64
2022/11/09 01:57:38;;;;;;;7.15;2.15;;;;;;;;;;4984361;28;20220;-64
2022/11/09 02:00:06;;;;;;;6.18;1.65;;;;;;;;;;5015142;28;20227;-64
2022/11/09 02:02:32;;;;;;;5.63;1.60;;;;;;;;;;5015223;28;20302;-64
2022/11/09 02:04:59;;;;;;;6.10;1.90;;;;;;;;;;5015797;28;20231;-64
2022/11/09 02:07:24;;;;;;;8.73;1.88;;;;;;;;;;5015535;28;20299;-64
2022/11/09 02:09:55;;;;;;;7.45;1.80;;;;;;;;;;5019196;28;20242;-64
2022/11/09 02:12:21;;;;;;;6.00;2.00;;;;;;;;;;5015313;28;20223;-64
2022/11/09 02:14:47;;;;;;;4.75;1.80;;;;;;;;;;5012999;28;20230;-64
2022/11/09 02:17:25;;;;;;;6.47;1.60;;;;;;;;;;4994112;28;20791;-64
2022/11/09 02:19:51;;;;;;;5.30;1.60;;;;;;;;;;5017521;28;20260;-65
2022/11/09 02:22:16;;;;;;;4.28;1.63;;;;;;;;;;5019043;28;20219;-64
2022/11/09 02:24:42;;;;;;;4.05;1.40;;;;;;;;;;5020076;28;20738;-64
2022/11/09 02:27:07;;;;;;;4.65;1.70;;;;;;;;;;5019868;28;20208;-64
2022/11/09 02:29:37;;;;;;;5.75;1.67;;;;;;;;;;5018282;28;20212;-64
2022/11/09 02:32:03;;;;;;;5.50;1.90;;;;;;;;;;5019101;28;20240;-64
2022/11/09 02:34:29;;;;;;;5.65;1.77;;;;;;;;;;4999003;28;20313;-64
2022/11/09 02:36:54;;;;;;;5.53;1.92;;;;;;;;;;5013306;28;20302;-64
2022/11/09 02:39:22;;;;;;;6.18;1.90;;;;;;;;;;5026912;28;20560;-64
2022/11/09 02:41:49;;;;;;;4.68;1.50;;;;;;;;;;5029011;28;20226;-64
2022/11/09 02:44:14;;;;;;;6.72;1.65;;;;;;;;;;5027760;28;20204;-64
2022/11/09 02:46:40;;;;;;;7.13;1.80;;;;;;;;;;5029330;28;20219;-64
2022/11/09 02:49:05;;;;;;;6.57;1.65;;;;;;;;;;5028687;28;20619;-64
2022/11/09 02:51:30;;;;;;;6.95;1.77;;;;;;;;;;5028317;28;20483;-64
2022/11/09 02:53:56;;;;;;;5.82;1.73;;;;;;;;;;5028906;28;20215;-64
2022/11/09 02:56:21;;;;;;;6.15;1.70;;;;;;;;;;5033406;28;20215;-64
2022/11/09 02:58:46;;;;;;;6.30;1.83;;;;;;;;;;5027836;28;20715;-64
2022/11/09 03:01:11;;;;;;;10.18;2.13;;;;;;;;;;5028627;28;20207;-64
2022/11/09 03:03:37;;;;;;;6.63;1.63;;;;;;;;;;5029490;28;20750;-64
2022/11/09 03:06:03;;;;;;;7.72;2.00;;;;;;;;;;5028459;28;20224;-64
2022/11/09 03:08:29;;;;;;;7.30;1.73;;;;;;;;;;5029500;28;20220;-64
2022/11/09 03:10:54;;;;;;;7.82;1.70;;;;;;;;;;5019708;28;20232;-64
2022/11/09 03:13:19;;;;;;;4.72;1.60;;;;;;;;;;5008626;28;20235;-64
2022/11/09 03:15:44;;;;;;;6.22;1.67;;;;;;;;;;5020835;28;20630;-64
2022/11/09 03:18:10;;;;;;;7.22;1.67;;;;;;;;;;5015255;28;20757;-64
2022/11/09 03:20:36;;;;;;;6.68;1.50;;;;;;;;;;5011703;28;20228;-64
2022/11/09 03:23:01;;;;;;;3.92;1.40;;;;;;;;;;5017012;28;20307;-64
2022/11/09 03:25:27;;;;;;;4.18;1.60;;;;;;;;;;5017906;28;20253;-64
2022/11/09 03:27:58;;;;;;;8.13;1.63;;;;;;;;;;5018541;28;20204;-64
2022/11/09 03:30:24;;;;;;;8.27;1.95;;;;;;;;;;5018592;28;20231;-63
2022/11/09 03:32:49;;;;;;;6.60;1.40;;;;;;;;;;5018161;28;20211;-63
2022/11/09 03:35:14;;;;;;;5.32;1.30;;;;;;;;;;5018423;28;20211;-63
2022/11/09 03:37:40;;;;;;;7.85;2.00;;;;;;;;;;5013581;28;20444;-63
2022/11/09 03:40:05;;;;;;;7.13;1.63;;;;;;;;;;5009906;28;20227;-63
2022/11/09 03:42:30;;;;;;;8.02;1.75;;;;;;;;;;5010815;28;20322;-62
2022/11/09 03:44:56;;;;;;;6.18;1.77;;;;;;;;;;5010463;28;20659;-62
2022/11/09 03:47:21;;;;;;;5.13;1.58;;;;;;;;;;5016480;28;20208;-62
2022/11/09 03:49:46;;;;;;;5.60;1.70;;;;;;;;;;5018240;28;20215;-63
2022/11/09 03:52:12;;;;;;;7.45;1.75;;;;;;;;;;5017587;28;20241;-63
2022/11/09 03:54:37;;;;;;;8.52;1.73;;;;;;;;;;5017450;28;20222;-63
2022/11/09 03:57:02;;;;;;;4.32;1.33;;;;;;;;;;5018815;28;20800;-63
2022/11/09 03:59:27;;;;;;;6.18;1.67;;;;;;;;;;5015153;28;20228;-62
2022/11/09 04:01:53;;;;;;;9.20;1.70;;;;;;;;;;5011122;28;20212;-63
2022/11/09 04:04:19;;;;;;;4.80;1.40;;;;;;;;;;5010682;28;20937;-63
2022/11/09 04:06:44;;;;;;;7.63;1.52;;;;;;;;;;5013391;28;20219;-63
2022/11/09 04:09:10;;;;;;;7.03;1.83;;;;;;;;;;5016278;28;20216;-63
2022/11/09 04:11:35;;;;;;;5.82;1.75;;;;;;;;;;5017897;28;20303;-62
2022/11/09 04:14:01;;;;;;;8.90;1.70;;;;;;;;;;5016542;28;20216;-63
2022/11/09 04:16:26;;;;;;;9.15;1.63;;;;;;;;;;5016774;28;20440;-63
2022/11/09 04:18:51;;;;;;;6.25;1.58;;;;;;;;;;5017330;28;20702;-62
2022/11/09 04:21:17;;;;;;;10.38;2.10;;;;;;;;;;5016111;28;20387;-63
2022/11/09 04:23:42;;;;;;;8.18;1.88;;;;;;;;;;5010405;28;20773;-62
2022/11/09 04:26:07;;;;;;;7.10;1.52;;;;;;;;;;5009272;28;20656;-63
2022/11/09 04:28:33;;;;;;;9.98;1.60;;;;;;;;;;5010844;28;20307;-62
2022/11/09 04:30:59;;;;;;;8.32;1.63;;;;;;;;;;5015965;28;20332;-62
2022/11/09 04:33:25;;;;;;;8.63;1.70;;;;;;;;;;5016893;28;20548;-63
2022/11/09 04:35:50;;;;;;;7.75;1.60;;;;;;;;;;5016521;28;20219;-63
2022/11/09 04:38:15;;;;;;;9.32;1.70;;;;;;;;;;5016919;28;20350;-63
2022/11/09 04:40:41;;;;;;;9.02;1.80;;;;;;;;;;5016698;28;20595;-62
2022/11/09 04:43:07;;;;;;;8.38;1.52;;;;;;;;;;5016381;28;20223;-63
2022/11/09 04:45:32;;;;;;;7.93;2.13;;;;;;;;;;4994030;28;20464;-62
2022/11/09 04:47:58;;;;;;;7.10;1.52;;;;;;;;;;5010222;28;20294;-63
2022/11/09 04:50:23;;;;;;;10.23;1.48;;;;;;;;;;5009239;28;20216;-62
2022/11/09 04:52:49;;;;;;;9.27;1.98;;;;;;;;;;5014551;28;20718;-63
2022/11/09 04:55:14;;;;;;;8.80;1.77;;;;;;;;;;5015723;28;20578;-62
2022/11/09 04:57:39;;;;;;;10.27;2.00;;;;;;;;;;5015718;28;20222;-62
2022/11/09 05:00:05;;;;;;;8.85;1.70;;;;;;;;;;5015815;28;20971;-62
2022/11/09 05:02:30;;;;;;;7.97;2.00;;;;;;;;;;5016561;28;20219;-62
2022/11/09 05:04:56;;;;;;;9.23;1.92;;;;;;;;;;5024335;28;20246;-62
2022/11/09 05:07:21;;;;;;;12.23;1.90;;;;;;;;;;5025912;28;20585;-63
2022/11/09 05:09:46;;;;;;;9.75;1.98;;;;;;;;;;5025317;28;20593;-62
2022/11/09 05:12:12;;;;;;;8.73;1.70;;;;;;;;;;5005437;28;20712;-63
2022/11/09 05:14:38;;;;;;;10.50;2.17;;;;;;;;;;5007801;28;20726;-62
2022/11/09 05:17:03;;;;;;;8.30;1.90;;;;;;;;;;5026545;28;20220;-62
2022/11/09 05:19:28;;;;;;;7.38;1.58;;;;;;;;;;5026641;28;20226;-62
2022/11/09 05:21:54;;;;;;;9.48;1.80;;;;;;;;;;5027281;28;20218;-62
2022/11/09 05:24:19;;;;;;;10.25;1.50;;;;;;;;;;5026385;28;20210;-62
2022/11/09 05:26:44;;;;;;;8.77;2.00;;;;;;;;;;5026392;28;20792;-62
2022/11/09 05:29:10;;;;;;;7.25;1.75;;;;;;;;;;5014737;28;20212;-63
2022/11/09 05:31:35;;;;;;;9.50;1.75;;;;;;;;;;5013405;28;20322;-62
2022/11/09 05:34:00;;;;;;;7.80;2.10;;;;;;;;;;5008551;28;20318;-63
2022/11/09 05:36:26;;;;;;;7.32;1.70;;;;;;;;;;5009500;28;20212;-63
2022/11/09 05:38:52;;;;;;;7.40;1.80;;;;;;;;;;5011900;28;20246;-63
2022/11/09 05:41:18;;;;;;;10.93;1.63;;;;;;;;;;5014766;28;20454;-62
2022/11/09 05:43:43;;;;;;;11.25;1.83;;;;;;;;;;5020399;28;20211;-62
2022/11/09 05:46:09;;;;;;;7.80;1.50;;;;;;;;;;5013590;28;20286;-62
2022/11/09 05:48:34;;;;;;;10.27;1.88;;;;;;;;;;5002902;28;20214;-62
2022/11/09 05:51:01;;;;;;;7.20;1.80;;;;;;;;;;5020465;28;20311;-62
2022/11/09 05:53:26;;;;;;;8.43;1.88;;;;;;;;;;5018491;28;20836;-62
2022/11/09 05:55:51;;;;;;;12.75;2.03;;;;;;;;;;5013593;28;20711;-62
2022/11/09 05:58:17;;;;;;;9.43;1.77;;;;;;;;;;5012660;28;20223;-63
2022/11/09 06:00:42;;;;;;;12.02;1.83;;;;;;;;;;5012896;28;20223;-62
2022/11/09 06:03:08;;;;;;;10.15;2.05;;;;;;;;;;5018945;28;20231;-62
2022/11/09 06:05:34;;;;;;;8.00;1.90;;;;;;;;;;5020010;28;20306;-62
2022/11/09 06:08:01;;;;;;;10.77;1.70;;;;;;;;;;5018897;28;20322;-62
2022/11/09 06:10:26;;;;;;;8.55;2.75;;;;;;;;;;5019173;28;20262;-62
2022/11/09 06:12:51;;;;;;;11.80;1.98;;;;;;;;;;5019473;28;20249;-63
2022/11/09 06:15:16;;;;;;;9.73;1.73;;;;;;;;;;5019281;28;20247;-62
2022/11/09 06:17:42;;;;;;;11.00;1.80;;;;;;;;;;5014724;28;20340;-62
2022/11/09 06:20:07;;;;;;;9.88;2.03;;;;;;;;;;5012029;28;20258;-63
2022/11/09 06:22:32;;;;;;;12.65;2.05;;;;;;;;;;5011890;28;20230;-63
2022/11/09 06:24:58;;;;;;;8.83;1.90;;;;;;;;;;5017733;28;20449;-61
2022/11/09 06:27:23;;;;;;;10.93;2.42;;;;;;;;;;5018091;28;20417;-60
2022/11/09 06:29:48;;;;;;;7.72;1.92;;;;;;;;;;5016024;28;20310;-62
2022/11/09 06:32:13;;;;;;;8.13;1.85;;;;;;;;;;5017585;28;20226;-63
2022/11/09 06:34:39;;;;;;;13.55;2.45;;;;;;;;;;5019198;28;20270;-63
2022/11/09 06:37:04;;;;;;;8.55;1.80;;;;;;;;;;5017122;28;20212;-64
2022/11/09 06:39:29;;;;;;;8.57;1.63;;;;;;;;;;5014810;28;20501;-63
2022/11/09 06:41:55;;;;;;;13.45;2.20;;;;;;;;;;5011133;28;20208;-64
2022/11/09 06:44:20;;;;;;;10.52;2.47;;;;;;;;;;5009626;28;20660;-63
2022/11/09 06:46:46;;;;;;;9.82;2.50;;;;;;;;;;5014206;28;20219;-64
2022/11/09 06:49:11;;;;;;;9.23;1.90;;;;;;;;;;5015943;28;20235;-64
2022/11/09 06:51:36;;;;;;;8.00;1.80;;;;;;;;;;5018469;28;20469;-64
2022/11/09 06:54:02;;;;;;;8.18;1.83;;;;;;;;;;5018824;28;20219;-63
2022/11/09 06:56:27;;;;;;;10.15;1.70;;;;;;;;;;5019168;28;20261;-64
2022/11/09 06:58:53;;;;;;;6.72;1.60;;;;;;;;;;5016264;28;20232;-64
2022/11/09 07:01:18;;;;;;;10.43;1.73;;;;;;;;;;5015238;28;20235;-63
2022/11/09 07:03:45;;;;;;;10.13;1.98;;;;;;;;;;5010118;28;20228;-63
2022/11/09 07:06:11;;;;;;;11.73;2.40;;;;;;;;;;5009863;28;20235;-63
2022/11/09 07:08:36;;;;;;;12.18;2.67;;;;;;;;;;5012222;28;20220;-62
2022/11/09 07:11:09;;;;;;;12.15;2.00;;;;;;;;;;5016879;28;20311;-62
2022/11/09 07:13:34;;;;;;;8.95;2.30;;;;;;;;;;5017491;28;20227;-63
2022/11/09 07:16:00;;;;;;;12.23;2.28;;;;;;;;;;5016092;28;20211;-63
2022/11/09 07:18:25;;;;;;;8.80;2.00;;;;;;;;;;5016930;28;20626;-63
2022/11/09 07:20:51;;;;;;;9.70;2.30;;;;;;;;;;5016337;28;20207;-63
2022/11/09 07:23:16;;;;;;;10.57;1.77;;;;;;;;;;5017136;28;20753;-63
2022/11/09 07:25:41;;;;;;;11.63;2.33;;;;;;;;;;5010967;28;20210;-63
2022/11/09 07:28:07;;;;;;;9.05;3.20;;;;;;;;;;5009610;28;20207;-63
2022/11/09 07:30:33;;;;;;;10.38;2.05;;;;;;;;;;5009556;28;20517;-63
2022/11/09 07:32:58;;;;;;;11.73;1.90;;;;;;;;;;5015554;28;20203;-63
2022/11/09 07:35:24;;;;;;;9.35;2.00;;;;;;;;;;5017366;28;20211;-63
2022/11/09 07:37:49;;;;;;;10.82;2.10;;;;;;;;;;5010390;28;20216;-63
2022/11/09 07:40:15;;;;;;;12.73;2.10;;;;;;;;;;5008568;28;20914;-64
2022/11/09 07:42:40;;;;;;;9.65;1.90;;;;;;;;;;5009646;28;20223;-63
2022/11/09 07:45:06;;;;;;;11.50;1.90;;;;;;;;;;5014475;28;20907;-63
2022/11/09 07:47:31;;;;;;;9.88;1.65;;;;;;;;;;5014133;28;20687;-64
2022/11/09 07:49:56;;;;;;;10.38;1.90;;;;;;;;;;5019066;28;20694;-63
2022/11/09 07:52:22;;;;;;;10.80;2.22;;;;;;;;;;5018680;28;20215;-64
2022/11/09 07:54:47;;;;;;;10.43;2.05;;;;;;;;;;5021688;28;20850;-64
2022/11/09 07:57:12;;;;;;;8.45;1.80;;;;;;;;;;5021663;28;20211;-64
2022/11/09 07:59:38;;;;;;;11.90;2.50;;;;;;;;;;5018541;28;20263;-63
2022/11/09 08:02:04;;;;;;;10.13;1.75;;;;;;;;;;5028429;28;20214;-63
2022/11/09 08:04:29;;;;;;;13.05;2.05;;;;;;;;;;5032430;28;20295;-63
2022/11/09 08:06:54;;;;;;;10.32;1.95;;;;;;;;;;5032787;28;20617;-63
2022/11/09 08:09:19;;;;;;;11.80;2.47;;;;;;;;;;5033096;28;20334;-63
2022/11/09 08:11:45;;;;;;;10.80;2.20;;;;;;;;;;5016449;28;20722;-63
2022/11/09 08:14:10;;;;;;;10.65;2.17;;;;;;;;;;4994674;28;20220;-63
2022/11/09 08:16:35;;;;;;;8.60;2.10;;;;;;;;;;5030942;28;20211;-63
2022/11/09 08:19:00;;;;;;;12.63;2.50;;;;;;;;;;5033090;28;20216;-64
2022/11/09 08:21:26;;;;;;;8.30;1.83;;;;;;;;;;5032879;28;20212;-63
2022/11/09 08:23:51;;;;;;;11.23;2.20;;;;;;;;;;5033126;28;20212;-64
2022/11/09 08:26:16;;;;;;;8.25;2.17;;;;;;;;;;5032536;28;20231;-64
2022/11/09 08:28:41;;;;;;;11.98;2.33;;;;;;;;;;5032399;28;20230;-63
2022/11/09 08:31:07;;;;;;;8.48;2.00;;;;;;;;;;5014854;28;20227;-63
2022/11/09 08:33:34;;;;;;;10.23;2.30;;;;;;;;;;5015620;28;20208;-63
2022/11/09 08:36:00;;;;;;;14.70;2.03;;;;;;;;;;5032319;28;20216;-63
2022/11/09 08:38:25;;;;;;;10.27;1.95;;;;;;;;;;5032616;28;20215;-63
2022/11/09 08:40:55;;;;;;;13.60;2.55;;;;;;;;;;5032837;28;20212;-63
2022/11/09 08:43:20;;;;;;;12.93;2.08;;;;;;;;;;5031461;28;20565;-63
2022/11/09 08:45:45;;;;;;;9.30;1.98;;;;;;;;;;5032775;28;20748;-63
2022/11/09 08:48:10;;;;;;;11.57;1.88;;;;;;;;;;5032452;28;20220;-63
2022/11/09 08:50:36;;;;;;;9.30;1.88;;;;;;;;;;5032169;28;20221;-63
2022/11/09 08:53:01;;;;;;;12.50;3.15;;;;;;;;;;5032376;28;20618;-63
2022/11/09 08:55:26;;;;;;;9.02;2.17;;;;;;;;;;5015017;28;20212;-63
2022/11/09 08:57:53;;;;;;;8.75;1.92;;;;;;;;;;5031547;28;20212;-63
2022/11/09 09:00:18;;;;;;;9.93;1.75;;;;;;;;;;5031860;28;20794;-63
2022/11/09 09:02:43;;;;;;;8.60;1.98;;;;;;;;;;5031659;28;20219;-63
2022/11/09 09:05:08;;;;;;;9.48;2.15;;;;;;;;;;5030596;28;20200;-63
2022/11/09 09:07:34;;;;;;;9.77;2.20;;;;;;;;;;5032748;28;20215;-63
2022/11/09 09:09:59;;;;;;;11.10;2.30;;;;;;;;;;5031780;28;20216;-63
2022/11/09 09:12:24;;;;;;;9.07;1.85;;;;;;;;;;5031315;28;20675;-63
2022/11/09 09:14:49;;;;;;;10.43;2.30;;;;;;;;;;5032240;28;20200;-63
2022/11/09 09:17:15;;;;;;;8.68;1.73;;;;;;;;;;5029773;28;20245;-63
2022/11/09 09:19:40;;;;;;;8.25;1.85;;;;;;;;;;5032299;28;20211;-63
2022/11/09 09:22:05;;;;;;;9.30;1.77;;;;;;;;;;5032072;28;20212;-63
2022/11/09 09:24:30;;;;;;;8.68;1.77;;;;;;;;;;5031626;28;20294;-63
2022/11/09 09:26:56;;;;;;;13.70;2.30;;;;;;;;;;5032355;28;20215;-63
2022/11/09 09:29:21;;;;;;;12.43;2.03;;;;;;;;;;5031747;28;20287;-63
2022/11/09 09:31:46;;;;;;;10.05;1.90;;;;;;;;;;5031345;28;20582;-63
2022/11/09 09:34:12;;;;;;;16.52;2.17;;;;;;;;;;5031867;28;20236;-63
2022/11/09 09:36:37;;;;;;;8.60;2.00;;;;;;;;;;5014659;28;20848;-63
2022/11/09 09:39:02;;;;;;;11.13;2.00;;;;;;;;;;5030884;28;20234;-63
2022/11/09 09:41:34;;;;;;;9.25;2.00;;;;;;;;;;5032229;28;20289;-63
2022/11/09 09:44:01;;;;;;;8.38;2.10;;;;;;;;;;5032298;28;20405;-63
2022/11/09 09:46:33;;;;;;;9.27;2.25;;;;;;;;;;5012905;28;20802;-63
2022/11/09 09:49:01;;;;;;;10.82;2.10;;;;;;;;;;5032116;28;20608;-63
2022/11/09 09:51:36;;;;;;;9.60;2.05;;;;;;;;;;5031875;28;20671;-63
2022/11/09 09:54:04;;;;;;;10.55;2.05;;;;;;;;;;5013133;28;20704;-63
2022/11/09 09:56:31;;;;;;;11.43;2.25;;;;;;;;;;5031882;28;20659;-63
2022/11/09 09:59:05;;;;;;;8.73;1.83;;;;;;;;;;5031961;28;20277;-63
2022/11/09 10:01:36;;;;;;;12.25;3.25;;;;;;;;;;5013155;28;20215;-63
2022/11/09 10:04:01;;;;;;;11.52;1.88;;;;;;;;;;5014041;28;20216;-63
2022/11/09 10:06:39;;;;;;;11.32;2.22;;;;;;;;;;5031061;28;20291;-63
2022/11/09 10:09:08;;;;;;;9.30;2.50;;;;;;;;;;5014041;28;20215;-63
2022/11/09 10:11:37;;;;;;;7.35;1.90;;;;;;;;;;5010285;28;20298;-63
2022/11/09 10:14:14;;;;;;;13.27;2.35;;;;;;;;;;5024967;28;20223;-63
2022/11/09 10:16:43;;;;;;;9.82;2.08;;;;;;;;;;5025051;28;20334;-63
2022/11/09 10:19:24;;;;;;;9.25;2.58;;;;;;;;;;5010121;28;20225;-63
2022/11/09 10:21:49;;;;;;;8.45;1.90;;;;;;;;;;5025116;28;20678;-64
2022/11/09 10:24:20;;;;;;;10.13;2.30;;;;;;;;;;5030574;28;20262;-64
2022/11/09 10:26:47;;;;;;;9.45;2.00;;;;;;;;;;5029180;28;20212;-63
2022/11/09 10:29:16;;;;;;;11.18;1.67;;;;;;;;;;5030885;28;20214;-63
2022/11/09 10:31:42;;;;;;;7.45;1.60;;;;;;;;;;5014274;28;20236;-63
2022/11/09 10:34:11;;;;;;;9.13;1.67;;;;;;;;;;5050115;28;20290;-63
2022/11/09 10:36:43;;;;;;;9.57;1.83;;;;;;;;;;5036931;28;20203;-63
2022/11/09 10:39:08;;;;;;;10.00;1.77;;;;;;;;;;5032452;28;20235;-63
2022/11/09 10:41:35;;;;;;;11.20;1.75;;;;;;;;;;5013625;28;20219;-63
2022/11/09 10:44:00;;;;;;;10.48;1.90;;;;;;;;;;5029359;28;20223;-63
2022/11/09 10:46:25;;;;;;;10.48;1.75;;;;;;;;;;5034692;28;20207;-63
2022/11/09 10:48:51;;;;;;;13.13;2.13;;;;;;;;;;5033999;28;20215;-63
2022/11/09 10:51:30;;;;;;;10.05;2.63;;;;;;;;;;5034570;28;20768;-63
2022/11/09 10:54:21;;;;;;;8.45;1.60;;;;;;;;;;5035179;28;20741;-63
2022/11/09 10:56:48;;;;;;;12.60;2.22;;;;;;;;;;5033685;28;20220;-63
2022/11/09 10:59:31;;;;;;;9.80;1.60;;;;;;;;;;5049782;28;20240;-63
2022/11/09 11:01:57;;;;;;;9.68;1.73;;;;;;;;;;5034763;28;20227;-63
2022/11/09 11:04:23;;;;;;;8.75;1.85;;;;;;;;;;5033488;28;20216;-63
2022/11/09 11:06:48;;;;;;;8.70;1.70;;;;;;;;;;5017157;28;20248;-63
2022/11/09 11:09:15;;;;;;;8.82;1.95;;;;;;;;;;5034302;28;20298;-63
2022/11/09 11:11:40;;;;;;;8.13;1.50;;;;;;;;;;5026593;28;20223;-63
2022/11/09 11:14:14;;;;;;;10.02;1.95;;;;;;;;;;5018515;28;20212;-63
2022/11/09 11:16:40;;;;;;;9.45;1.65;;;;;;;;;;5031945;28;20693;-63
2022/11/09 11:19:23;;;;;;;7.82;1.65;;;;;;;;;;5026089;28;20300;-64
2022/11/09 11:22:07;;;;;;;8.77;1.38;;;;;;;;;;5033441;28;20690;-63
2022/11/09 11:24:39;;;;;;;9.27;1.60;;;;;;;;;;5031674;28;20211;-63
2022/11/09 11:27:09;;;;;;;12.98;1.65;;;;;;;;;;5033647;28;20285;-63
2022/11/09 11:29:40;;;;;;;10.07;2.03;;;;;;;;;;5016664;28;20216;-63
2022/11/09 11:32:08;;;;;;;7.57;1.52;;;;;;;;;;5033242;28;20695;-63
2022/11/09 11:34:33;;;;;;;11.50;1.98;;;;;;;;;;5033955;28;20219;-63
2022/11/09 11:37:01;;;;;;;10.43;1.73;;;;;;;;;;5016409;28;20208;-63
2022/11/09 11:39:30;;;;;;;8.50;1.75;;;;;;;;;;5031906;28;20240;-63
2022/11/09 11:42:15;;;;;;;11.15;1.58;;;;;;;;;;5016211;28;20212;-63
2022/11/09 11:44:40;;;;;;;8.60;1.70;;;;;;;;;;5033526;28;20212;-63
2022/11/09 11:47:10;;;;;;;8.60;1.50;;;;;;;;;;5032661;28;20215;-63
2022/11/09 11:49:40;;;;;;;12.00;1.77;;;;;;;;;;5033776;28;20674;-63
2022/11/09 11:52:14;;;;;;;9.35;1.60;;;;;;;;;;5044153;28;20865;-63
2022/11/09 11:54:45;;;;;;;12.25;2.10;;;;;;;;;;5034725;28;20207;-63
2022/11/09 11:57:26;;;;;;;11.23;1.85;;;;;;;;;;5048347;28;20216;-63
2022/11/09 11:59:55;;;;;;;10.15;2.05;;;;;;;;;;5032930;28;20730;-63
2022/11/09 12:02:25;;;;;;;9.10;1.90;;;;;;;;;;5048581;28;20231;-63
2022/11/09 12:04:57;;;;;;;11.55;1.92;;;;;;;;;;5015797;28;20211;-63
2022/11/09 12:07:22;;;;;;;11.18;2.00;;;;;;;;;;5032269;28;20212;-63
2022/11/09 12:09:56;;;;;;;10.80;2.05;;;;;;;;;;5033720;28;20224;-63
2022/11/09 12:12:25;;;;;;;10.15;1.85;;;;;;;;;;5046621;28;20593;-63
2022/11/09 12:14:54;;;;;;;8.68;1.63;;;;;;;;;;5014941;28;20212;-63
2022/11/09 12:17:24;;;;;;;9.85;1.75;;;;;;;;;;5015263;28;20239;-63
2022/11/09 12:20:13;;;;;;;8.57;1.58;;;;;;;;;;5033338;28;20280;-63
2022/11/09 12:22:44;;;;;;;10.70;1.90;;;;;;;;;;5033103;28;20223;-63
2022/11/09 12:25:13;;;;;;;7.22;1.50;;;;;;;;;;5015017;28;20628;-63
2022/11/09 12:27:43;;;;;;;6.53;1.20;;;;;;;;;;5014475;28;20222;-63
2022/11/09 12:30:11;;;;;;;7.30;1.13;;;;;;;;;;5014963;28;20261;-63
2022/11/09 12:32:40;;;;;;;7.82;1.90;;;;;;;;;;5033168;28;20215;-63
2022/11/09 12:35:24;;;;;;;8.95;1.48;;;;;;;;;;5013842;28;20212;-63
2022/11/09 12:37:57;;;;;;;6.63;1.63;;;;;;;;;;5026964;28;20577;-63
2022/11/09 12:40:25;;;;;;;7.60;1.20;;;;;;;;;;5032424;28;20233;-63
2022/11/09 12:42:53;;;;;;;9.77;1.70;;;;;;;;;;5031863;28;20290;-63
2022/11/09 12:45:21;;;;;;;6.18;1.50;;;;;;;;;;5047852;28;20216;-63
2022/11/09 12:47:46;;;;;;;7.03;1.25;;;;;;;;;;5030190;28;20246;-63
2022/11/09 12:50:14;;;;;;;6.05;1.30;;;;;;;;;;5031298;28;20223;-63
2022/11/09 12:52:39;;;;;;;8.45;1.90;;;;;;;;;;5015257;28;20224;-63
2022/11/09 12:55:04;;;;;;;10.35;1.40;;;;;;;;;;5031749;28;20212;-63
2022/11/09 12:57:32;;;;;;;11.55;2.03;;;;;;;;;;5032234;28;20230;-63
2022/11/09 12:59:57;;;;;;;11.35;1.40;;;;;;;;;;5032771;28;20227;-63
2022/11/09 13:02:27;;;;;;;7.13;1.77;;;;;;;;;;5031016;28;20208;-63
2022/11/09 13:04:54;;;;;;;6.32;1.10;;;;;;;;;;5032510;28;20208;-63
2022/11/09 13:07:43;;;;;;;7.47;1.42;;;;;;;;;;5031866;28;20216;-63
2022/11/09 13:10:21;;;;;;;7.90;1.35;;;;;;;;;;5031157;28;20225;-63
2022/11/09 13:12:46;;;;;;;13.45;1.80;;;;;;;;;;5027528;28;20603;-63
2022/11/09 13:15:24;;;;;;;7.03;1.65;;;;;;;;;;5033011;28;20204;-63
2022/11/09 13:17:54;;;;;;;11.63;1.63;;;;;;;;;;5051345;28;20681;-63
2022/11/09 13:20:37;;;;;;;9.85;1.10;;;;;;;;;;5051173;28;20298;-63
2022/11/09 13:23:03;;;;;;;7.68;1.58;;;;;;;;;;5051571;28;20223;-63
2022/11/09 13:25:43;;;;;;;8.38;1.25;;;;;;;;;;5051346;28;20560;-63
2022/11/09 13:28:26;;;;;;;7.95;1.63;;;;;;;;;;5051793;28;20264;-63
2022/11/09 13:30:52;;;;;;;8.70;1.30;;;;;;;;;;5035668;28;20231;-64
2022/11/09 13:33:18;;;;;;;9.55;1.77;;;;;;;;;;5027197;28;20254;-63
2022/11/09 13:35:43;;;;;;;9.13;1.27;;;;;;;;;;5030161;28;20212;-63
2022/11/09 13:38:18;;;;;;;5.65;1.10;;;;;;;;;;5032712;28;20225;-63
2022/11/09 13:40:47;;;;;;;4.43;1.30;;;;;;;;;;5029843;28;20223;-63
2022/11/09 13:43:13;;;;;;;7.88;1.38;;;;;;;;;;5034510;28;20219;-63
2022/11/09 13:45:45;;;;;;;9.60;1.20;;;;;;;;;;5032625;28;20233;-63
2022/11/09 13:48:22;;;;;;;6.95;1.10;;;;;;;;;;5028657;28;20590;-64
2022/11/09 13:50:54;;;;;;;4.55;1.10;;;;;;;;;;5031945;28;20281;-63
2022/11/09 13:53:40;;;;;;;7.00;1.30;;;;;;;;;;5044114;28;20303;-63
2022/11/09 13:56:12;;;;;;;6.53;1.42;;;;;;;;;;5035851;28;20211;-63
2022/11/09 13:58:37;;;;;;;8.30;1.52;;;;;;;;;;5030478;28;20574;-63
2022/11/09 14:01:03;;;;;;;8.65;1.35;;;;;;;;;;5029882;28;20730;-63
2022/11/09 14:03:28;;;;;;;6.10;1.10;;;;;;;;;;5032303;28;20226;-63
2022/11/09 14:05:54;;;;;;;8.85;1.10;;;;;;;;;;5035014;28;20208;-63
2022/11/09 14:08:23;;;;;;;6.75;1.08;;;;;;;;;;5034961;28;20227;-63
2022/11/09 14:10:58;;;;;;;5.35;1.10;;;;;;;;;;5035699;28;20236;-63
2022/11/09 14:13:39;;;;;;;4.63;1.08;;;;;;;;;;5015207;28;20303;-63
2022/11/09 14:16:05;;;;;;;8.55;1.00;;;;;;;;;;5033745;28;20222;-63
2022/11/09 14:18:36;;;;;;;5.65;1.20;;;;;;;;;;5035142;28;20306;-64
2022/11/09 14:21:02;;;;;;;6.30;1.40;;;;;;;;;;5033057;28;20234;-63
2022/11/09 14:23:28;;;;;;;8.25;1.42;;;;;;;;;;5035371;28;20220;-63
2022/11/09 14:25:54;;;;;;;6.82;1.48;;;;;;;;;;5034225;28;20216;-63
2022/11/09 14:28:20;;;;;;;6.30;1.30;;;;;;;;;;5030715;28;20275;-63
2022/11/09 14:30:46;;;;;;;7.53;1.30;;;;;;;;;;5035535;28;20215;-63
2022/11/09 14:33:19;;;;;;;7.45;1.48;;;;;;;;;;5031863;28;20208;-63
2022/11/09 14:35:44;;;;;;;10.27;1.52;;;;;;;;;;5034658;28;20220;-63
2022/11/09 14:38:24;;;;;;;8.90;1.40;;;;;;;;;;5034333;28;20227;-63